Terminal Aerodrome Forecast
Issued by NWS Paducah, KY

Home | Current Version | Previous Version | Text Only | Print | Product List | Glossary On
Versions: 1 2 3 4 5 6 7 8 9 10 11 12 13 14 15 16 17
000
FTUS43 KPAH 292300
TAFPAH
TAF
KPAH 292336Z 3000/3024 34011G18KT P6SM OVC035
     FM300315 34006G18KT P6SM OVC026
     FM300830 34009G16KT P6SM OVC019
     FM301430 36007KT P6SM OVC022
     FM302000 01005KT P6SM SCT022
     FM302200 36003KT P6SM SKC=

USA.gov is the U.S. government's official web portal to all federal, state and local government web resources and services.